Time;durP1;ratioP1;P1;durP2;ratioP2;P2;SDS_P1;SDS_P2;PMS_P1;PMS_P2;Temp;Humidity;BMP_temperature;BMP_pressure;BME280_temperature;BME280_humidity;BME280_pressure;Samples;Min_cycle;Max_cycle;Signal;HPM_P1;HPM_P2
2021/05/12 00:00:20;;;;;;;8.23;4.75;;;;;;;11.29;63.73;102009.06;2578824;55;20135;-72
2021/05/12 00:02:48;;;;;;;7.22;4.30;;;;;;;11.38;63.22;102005.88;2578853;55;20157;-75
2021/05/12 00:05:17;;;;;;;8.13;4.47;;;;;;;11.49;62.21;102010.56;2578879;55;20156;-72
2021/05/12 00:07:45;;;;;;;5.87;4.18;;;;;;;11.59;61.73;102007.38;2578887;55;20109;-71
2021/05/12 00:10:15;;;;;;;7.22;4.53;;;;;;;11.69;60.94;101995.16;2578815;55;20143;-75
2021/05/12 00:12:42;;;;;;;5.62;3.87;;;;;;;11.79;59.95;102000.84;2579049;55;20118;-76
2021/05/12 00:15:12;;;;;;;6.72;3.62;;;;;;;11.85;59.95;101999.63;2578723;55;20132;-72
2021/05/12 00:17:41;;;;;;;11.00;4.28;;;;;;;11.90;58.92;102008.19;2578918;55;20515;-76
2021/05/12 00:20:11;;;;;;;8.70;4.07;;;;;;;12.01;58.57;102015.59;2578827;55;20121;-75
2021/05/12 00:22:44;;;;;;;5.07;3.67;;;;;;;12.10;58.25;102009.72;2578808;55;20136;-76
2021/05/12 00:25:13;;;;;;;6.45;4.10;;;;;;;12.14;57.61;102010.38;2579069;55;20113;-72
2021/05/12 00:27:41;;;;;;;8.25;3.87;;;;;;;12.15;57.38;102007.59;2578881;55;20173;-72
2021/05/12 00:30:11;;;;;;;8.15;4.10;;;;;;;12.21;57.16;102012.59;2578824;55;20106;-75
2021/05/12 00:32:41;;;;;;;6.00;3.92;;;;;;;12.22;56.80;102008.06;2578845;55;20116;-75
2021/05/12 00:35:10;;;;;;;10.05;4.05;;;;;;;12.26;57.81;102012.31;2573653;55;20131;-72
2021/05/12 00:37:38;;;;;;;5.12;4.05;;;;;;;12.25;57.08;101999.87;2578845;55;20124;-74
2021/05/12 00:40:08;;;;;;;5.25;3.90;;;;;;;12.25;56.70;102008.75;2578654;55;20110;-75
2021/05/12 00:42:37;;;;;;;10.50;3.78;;;;;;;12.24;56.96;102011.53;2578743;55;20102;-75
2021/05/12 00:45:07;;;;;;;6.43;3.45;;;;;;;12.24;57.14;102011.53;2578679;55;20188;-74
2021/05/12 00:47:34;;;;;;;10.13;5.30;;;;;;;12.20;56.46;102008.19;2578907;55;20117;-72
2021/05/12 00:50:04;;;;;;;6.30;3.97;;;;;;;12.27;55.85;102016.69;2578639;55;20144;-72
2021/05/12 00:52:32;;;;;;;9.80;3.78;;;;;;;12.27;56.92;102021.19;2578871;55;20126;-72
2021/05/12 00:54:59;;;;;;;4.35;3.58;;;;;;;12.29;56.26;102014.78;2578620;55;20702;-75
2021/05/12 00:57:27;;;;;;;6.82;3.62;;;;;;;12.29;55.77;102021.97;2578593;55;20132;-73
2021/05/12 00:59:55;;;;;;;5.43;3.97;;;;;;;12.34;55.77;102028.75;2578680;55;20112;-75
2021/05/12 01:02:23;;;;;;;4.45;3.42;;;;;;;12.36;55.54;102013.44;2578845;55;20120;-73
2021/05/12 01:04:51;;;;;;;6.37;3.62;;;;;;;12.43;55.16;102021.09;2578663;55;20123;-73
2021/05/12 01:07:18;;;;;;;6.75;4.00;;;;;;;12.38;55.52;102013.37;2578766;55;20271;-73
2021/05/12 01:09:45;;;;;;;5.43;3.80;;;;;;;12.35;55.20;102016.22;2578637;55;20114;-74
2021/05/12 01:12:13;;;;;;;6.75;3.72;;;;;;;12.32;55.21;102017.25;2578795;55;20160;-74
2021/05/12 01:14:40;;;;;;;6.95;3.75;;;;;;;12.30;55.40;102021.00;2578735;55;20128;-73
2021/05/12 01:17:10;;;;;;;6.47;3.80;;;;;;;12.28;55.60;102013.06;2578628;55;20123;-72
2021/05/12 01:19:39;;;;;;;4.32;3.47;;;;;;;12.23;56.04;102015.19;2578468;55;20233;-73
2021/05/12 01:22:07;;;;;;;7.50;3.80;;;;;;;12.21;56.06;102019.75;2578595;55;20492;-73
2021/05/12 01:24:35;;;;;;;6.65;3.30;;;;;;;12.18;55.91;102017.25;2578472;55;20116;-72
2021/05/12 01:27:03;;;;;;;4.80;3.33;;;;;;;12.17;55.86;102012.87;2578760;55;20105;-73
2021/05/12 01:29:31;;;;;;;5.28;3.25;;;;;;;12.13;56.32;102019.38;2578894;55;20603;-75
2021/05/12 01:31:58;;;;;;;4.75;3.17;;;;;;;12.14;55.93;102015.75;2578568;55;20125;-75
2021/05/12 01:34:25;;;;;;;4.87;3.58;;;;;;;12.11;55.95;102014.09;2578731;55;20131;-72
2021/05/12 01:36:54;;;;;;;4.97;3.15;;;;;;;12.13;55.77;102014.03;2578929;55;20109;-75
2021/05/12 01:39:22;;;;;;;6.85;3.78;;;;;;;12.09;56.39;102021.38;2573554;55;20193;-74
2021/05/12 01:41:49;;;;;;;5.35;3.30;;;;;;;12.08;55.78;102023.16;2578578;55;20121;-72
2021/05/12 01:44:17;;;;;;;9.38;3.30;;;;;;;12.10;55.71;102020.41;2573405;55;20137;-72
2021/05/12 01:46:46;;;;;;;6.45;3.47;;;;;;;12.08;56.04;102023.16;2578774;55;20109;-74
2021/05/12 01:49:14;;;;;;;4.28;3.28;;;;;;;12.11;55.20;102028.31;2578530;55;20519;-73
2021/05/12 01:51:42;;;;;;;5.35;3.50;;;;;;;12.16;55.89;102028.03;2578581;55;20110;-71
2021/05/12 01:54:11;;;;;;;5.60;3.55;;;;;;;12.19;55.17;102030.56;2578593;55;20611;-71
2021/05/12 01:56:41;;;;;;;7.20;3.30;;;;;;;12.28;54.83;102028.28;2578314;55;20105;-74
2021/05/12 01:59:10;;;;;;;10.48;3.20;;;;;;;12.45;54.81;102040.59;2578381;55;20135;-74
2021/05/12 02:01:38;;;;;;;3.60;3.00;;;;;;;12.69;54.12;102026.63;2578493;55;20109;-72
2021/05/12 02:04:08;;;;;;;7.97;4.32;;;;;;;12.81;53.87;102041.91;2578496;55;20128;-74
2021/05/12 02:06:37;;;;;;;9.13;3.12;;;;;;;12.92;53.44;102043.91;2578464;55;20546;-73
2021/05/12 02:09:07;;;;;;;5.70;3.42;;;;;;;13.26;52.02;102046.22;2578617;55;20125;-72
2021/05/12 02:11:35;;;;;;;8.05;3.28;;;;;;;13.36;51.13;102037.44;2578611;55;20129;-72
2021/05/12 02:14:04;;;;;;;6.68;3.12;;;;;;;13.32;51.08;102035.94;2578792;55;20135;-74
2021/05/12 02:16:32;;;;;;;7.20;3.22;;;;;;;13.34;50.38;102034.03;2578406;55;20112;-75
2021/05/12 02:18:59;;;;;;;6.53;3.15;;;;;;;13.38;50.48;102044.53;2578434;55;20121;-72
2021/05/12 02:21:27;;;;;;;5.40;3.50;;;;;;;13.34;50.94;102046.59;2578401;55;20288;-74
2021/05/12 02:23:54;;;;;;;8.75;2.80;;;;;;;13.30;51.70;102050.41;2573297;55;20117;-74
2021/05/12 02:26:21;;;;;;;10.15;3.10;;;;;;;13.22;51.13;102045.56;2578483;55;20109;-75
2021/05/12 02:28:49;;;;;;;7.70;2.95;;;;;;;13.19;51.50;102051.13;2578274;55;20097;-72
2021/05/12 02:31:17;;;;;;;5.15;2.53;;;;;;;13.14;51.58;102048.75;2578611;55;20109;-75
2021/05/12 02:33:45;;;;;;;4.72;2.60;;;;;;;13.13;51.39;102057.75;2578344;55;20109;-72
2021/05/12 02:36:12;;;;;;;3.60;2.83;;;;;;;13.16;50.83;102052.19;2578514;55;20109;-76
2021/05/12 02:38:39;;;;;;;3.53;2.97;;;;;;;13.14;51.78;102059.47;2578435;55;20110;-72
2021/05/12 02:41:07;;;;;;;7.82;2.83;;;;;;;13.15;51.45;102058.50;2578315;55;20128;-72
2021/05/12 02:43:35;;;;;;;4.85;2.60;;;;;;;13.17;51.29;102053.91;2573275;55;20117;-73
2021/05/12 02:46:02;;;;;;;5.82;3.20;;;;;;;13.23;51.81;102063.34;2578411;55;20113;-75
2021/05/12 02:48:30;;;;;;;5.43;3.00;;;;;;;13.26;51.16;102062.31;2578277;55;20110;-75
2021/05/12 02:50:58;;;;;;;6.55;3.03;;;;;;;13.27;50.46;102059.50;2578313;55;20119;-72
2021/05/12 02:53:25;;;;;;;5.12;2.87;;;;;;;13.32;50.64;102053.84;2578322;55;20122;-72
2021/05/12 02:55:52;;;;;;;6.15;3.65;;;;;;;13.35;51.54;102061.69;2578437;55;20109;-72
2021/05/12 02:58:20;;;;;;;3.65;2.83;;;;;;;13.41;51.07;102061.28;2578421;55;20109;-75
2021/05/12 03:00:48;;;;;;;3.72;2.55;;;;;;;13.50;50.67;102059.84;2578239;55;20114;-75
2021/05/12 03:03:15;;;;;;;3.33;2.72;;;;;;;13.62;49.73;102061.72;2578312;55;20112;-72
2021/05/12 03:05:44;;;;;;;4.32;2.67;;;;;;;13.80;49.15;102071.31;2578211;55;20124;-72
2021/05/12 03:08:11;;;;;;;3.62;2.80;;;;;;;13.89;49.28;102070.69;2578881;55;20113;-74
2021/05/12 03:10:40;;;;;;;3.35;2.47;;;;;;;14.02;48.67;102070.72;2578911;55;20121;-74
2021/05/12 03:13:08;;;;;;;4.87;2.67;;;;;;;14.19;48.05;102056.13;2579023;55;20131;-72
2021/05/12 03:15:37;;;;;;;4.87;2.70;;;;;;;14.40;47.67;102074.37;2573924;55;20101;-73
2021/05/12 03:18:06;;;;;;;7.37;2.95;;;;;;;14.54;46.83;102074.28;2578938;55;20132;-75
2021/05/12 03:20:34;;;;;;;9.77;2.87;;;;;;;14.71;47.17;102072.19;2579129;55;20718;-73
2021/05/12 03:23:03;;;;;;;3.90;2.67;;;;;;;14.86;46.13;102075.66;2579016;55;20131;-75
2021/05/12 03:25:30;;;;;;;6.18;3.03;;;;;;;14.99;45.56;102078.31;2578986;55;20126;-76
2021/05/12 03:28:00;;;;;;;4.75;2.47;;;;;;;15.21;45.73;102074.06;2578960;55;20143;-73
2021/05/12 03:30:30;;;;;;;4.95;2.60;;;;;;;15.34;44.47;102072.19;2578937;55;20125;-74
2021/05/12 03:32:58;;;;;;;5.12;2.62;;;;;;;15.53;43.76;102078.88;2579004;55;20112;-75
2021/05/12 03:35:25;;;;;;;4.00;2.67;;;;;;;15.65;44.71;102080.66;2578903;55;20127;-73
2021/05/12 03:37:53;;;;;;;5.22;2.40;;;;;;;15.75;44.15;102075.44;2573818;55;20131;-75
2021/05/12 03:40:21;;;;;;;10.20;2.58;;;;;;;15.85;43.87;102075.59;2578908;55;20604;-72
2021/05/12 03:42:49;;;;;;;14.40;3.40;;;;;;;15.89;42.91;102069.00;2578962;55;20140;-75
2021/05/12 03:45:16;;;;;;;6.45;2.47;;;;;;;16.09;43.47;102078.28;2578875;55;20152;-72
2021/05/12 03:47:44;;;;;;;10.23;2.70;;;;;;;16.21;43.16;102057.59;2579115;55;20109;-75
2021/05/12 03:50:12;;;;;;;15.15;2.92;;;;;;;16.25;43.00;102071.69;2578807;55;20615;-74
2021/05/12 03:52:39;;;;;;;8.25;2.33;;;;;;;16.33;42.23;102073.75;2578880;55;20112;-72
2021/05/12 03:55:09;;;;;;;3.05;2.33;;;;;;;16.41;42.51;102084.78;2578954;55;20113;-72
2021/05/12 03:57:38;;;;;;;9.82;2.40;;;;;;;16.55;41.83;102076.50;2578874;55;20489;-71
2021/05/12 04:00:06;;;;;;;7.15;2.15;;;;;;;16.68;40.96;102086.28;2578779;55;20173;-72
2021/05/12 04:02:40;;;;;;;3.05;2.30;;;;;;;16.78;40.46;102084.56;2579069;55;20614;-74
2021/05/12 04:05:09;;;;;;;3.40;2.50;;;;;;;16.83;41.60;102084.19;2578812;55;20117;-74
2021/05/12 04:07:36;;;;;;;9.68;2.62;;;;;;;16.91;39.77;102087.16;2578900;55;20139;-71
2021/05/12 04:10:05;;;;;;;7.75;2.87;;;;;;;16.99;40.41;102083.81;2578744;55;20130;-76
2021/05/12 04:12:32;;;;;;;5.47;2.50;;;;;;;17.02;40.63;102075.50;2578853;55;20153;-75
2021/05/12 04:15:01;;;;;;;6.70;2.40;;;;;;;17.15;39.57;102082.62;2578968;55;20127;-76
2021/05/12 04:17:28;;;;;;;8.13;2.05;;;;;;;17.35;38.95;102079.12;2578879;55;20352;-76
2021/05/12 04:19:57;;;;;;;5.18;2.45;;;;;;;17.60;40.03;102078.94;2578645;55;20127;-73
2021/05/12 04:22:24;;;;;;;8.80;2.78;;;;;;;17.65;38.81;102080.25;2573897;55;20124;-76
2021/05/12 04:24:52;;;;;;;17.23;3.33;;;;;;;17.77;40.22;102085.59;2578882;55;20120;-75
2021/05/12 04:27:19;;;;;;;6.07;2.45;;;;;;;17.87;38.46;102082.97;2578875;55;20629;-74
2021/05/12 04:29:47;;;;;;;7.93;2.25;;;;;;;17.91;39.08;102079.88;2578872;55;20133;-75
2021/05/12 04:32:15;;;;;;;6.35;3.65;;;;;;;17.92;37.01;102086.12;2578881;55;20109;-75
2021/05/12 04:34:43;;;;;;;5.43;2.37;;;;;;;17.92;38.43;102075.34;2578926;55;20168;-73
2021/05/12 04:37:10;;;;;;;6.68;2.33;;;;;;;18.02;37.03;102075.38;2573626;55;20635;-72
2021/05/12 04:39:37;;;;;;;3.28;2.40;;;;;;;18.08;37.78;102085.72;2573875;55;20516;-71
2021/05/12 04:42:05;;;;;;;6.22;2.47;;;;;;;18.21;37.83;102085.50;2578636;55;20115;-74
2021/05/12 04:44:33;;;;;;;4.12;2.15;;;;;;;18.26;37.08;102088.66;2578735;55;20117;-75
2021/05/12 04:47:00;;;;;;;5.10;2.55;;;;;;;18.26;37.72;102085.13;2578787;55;20131;-72
2021/05/12 04:49:29;;;;;;;8.10;2.72;;;;;;;18.35;37.69;102087.84;2578660;55;20113;-72
2021/05/12 04:51:56;;;;;;;30.83;20.67;;;;;;;18.49;37.11;102073.16;2578638;55;20627;-75
2021/05/12 04:54:23;;;;;;;8.52;2.25;;;;;;;18.63;36.56;102084.56;2578759;55;20134;-74
2021/05/12 04:56:51;;;;;;;8.23;2.87;;;;;;;18.75;36.47;102078.09;2578706;55;20528;-72
2021/05/12 04:59:18;;;;;;;7.20;2.10;;;;;;;18.87;36.61;102081.53;2573516;55;20127;-73
2021/05/12 05:01:46;;;;;;;7.53;2.62;;;;;;;18.91;36.05;102083.00;2579054;55;20113;-73
2021/05/12 05:04:16;;;;;;;3.83;2.37;;;;;;;18.99;36.04;102079.59;2578631;55;20121;-74
2021/05/12 05:06:45;;;;;;;4.70;2.55;;;;;;;19.16;34.67;102079.97;2578694;55;20132;-73
2021/05/12 05:09:12;;;;;;;5.68;2.83;;;;;;;19.21;36.21;102083.09;2578619;55;20113;-75
2021/05/12 05:11:39;;;;;;;6.03;2.70;;;;;;;19.37;35.19;102077.13;2578392;55;20603;-75
2021/05/12 05:14:07;;;;;;;6.00;2.50;;;;;;;19.54;36.00;102082.84;2578573;55;20121;-73
2021/05/12 05:16:34;;;;;;;4.12;2.30;;;;;;;19.61;35.64;102079.41;2578482;55;20132;-73
2021/05/12 05:19:02;;;;;;;3.92;2.40;;;;;;;19.78;35.32;102078.84;2578645;55;20154;-72
2021/05/12 05:21:30;;;;;;;6.57;2.33;;;;;;;20.00;34.13;102083.12;2578505;55;20492;-72
2021/05/12 05:23:58;;;;;;;5.35;2.60;;;;;;;20.08;35.30;102074.28;2578424;55;20120;-74
2021/05/12 05:26:26;;;;;;;6.75;2.37;;;;;;;20.10;33.95;102072.31;2578380;55;20124;-72
2021/05/12 05:28:53;;;;;;;4.12;2.20;;;;;;;20.16;34.19;102072.56;2578490;55;20125;-72
2021/05/12 05:31:21;;;;;;;3.58;2.17;;;;;;;20.28;33.91;102073.22;2578256;55;20116;-73
2021/05/12 05:34:03;;;;;;;6.65;2.42;;;;;;;20.42;33.21;102069.19;2578023;55;20478;-73
2021/05/12 05:36:49;;;;;;;5.25;2.47;;;;;;;20.54;34.16;102069.00;2578670;55;20137;-75
2021/05/12 05:39:41;;;;;;;8.23;3.22;;;;;;;20.89;33.11;102063.87;2562841;55;20126;-75
2021/05/12 05:42:33;;;;;;;3.47;2.35;;;;;;;21.04;32.91;102064.22;2562836;55;20127;-76
2021/05/12 05:45:18;;;;;;;9.85;4.45;;;;;;;21.14;33.20;102075.88;2569800;55;20120;-76
2021/05/12 05:48:01;;;;;;;4.50;2.62;;;;;;;21.20;33.04;102077.97;2566424;55;20646;-76
2021/05/12 05:51:01;;;;;;;4.18;2.15;;;;;;;21.15;32.40;102071.31;2561351;56;20130;-74
2021/05/12 05:53:52;;;;;;;5.35;2.60;;;;;;;21.19;31.41;102065.44;2542563;56;20126;-74
2021/05/12 05:56:41;;;;;;;8.48;2.75;;;;;;;21.33;32.19;102068.59;2565493;55;20106;-75
2021/05/12 05:59:42;;;;;;;4.30;2.53;;;;;;;21.65;30.58;102061.81;2561530;56;20128;-74
2021/05/12 06:02:27;;;;;;;5.20;2.00;;;;;;;21.80;30.66;102065.69;2558210;56;20136;-73
2021/05/12 06:05:11;;;;;;;3.58;2.37;;;;;;;22.00;30.47;102065.50;2567657;55;20642;-73
2021/05/12 06:07:56;;;;;;;6.68;2.58;;;;;;;22.14;31.07;102065.91;2569935;55;20132;-74
2021/05/12 06:10:41;;;;;;;3.15;2.40;;;;;;;22.21;29.85;102066.97;2567426;55;20116;-74
2021/05/12 06:13:28;;;;;;;6.70;2.80;;;;;;;22.10;29.82;102071.66;2578618;55;20100;-73
2021/05/12 06:16:28;;;;;;;;;;;;;;;22.53;29.51;102060.06;2561652;56;20122;-74
2021/05/12 06:19:17;;;;;;;5.30;2.40;;;;;;;22.23;30.93;102065.81;2553149;56;19994;-72
2021/05/12 06:22:03;;;;;;;14.63;3.75;;;;;;;22.43;29.34;102062.00;2561895;55;20124;-74
2021/05/12 06:25:04;;;;;;;3.10;2.50;;;;;;;22.48;30.15;102067.81;2556239;56;20141;-73
2021/05/12 06:27:50;;;;;;;6.22;2.22;;;;;;;22.48;28.53;102051.50;2547984;56;20117;-74
2021/05/12 06:30:48;;;;;;;5.70;2.37;;;;;;;22.59;29.29;102056.69;2552738;55;20130;-73
2021/05/12 06:33:30;;;;;;;2.40;1.75;;;;;;;22.83;30.26;102057.78;2569309;55;20488;-74
2021/05/12 06:36:16;;;;;;;8.45;2.62;;;;;;;23.12;29.29;102059.25;2570159;55;20635;-72
2021/05/12 06:38:58;;;;;;;6.45;3.00;;;;;;;23.08;27.75;102055.16;2569083;55;20113;-72
2021/05/12 06:41:29;;;;;;;3.42;2.30;;;;;;;23.26;29.04;102063.19;2578270;55;20135;-74
2021/05/12 06:43:57;;;;;;;3.80;2.12;;;;;;;23.38;27.73;102058.31;2578430;55;20600;-73
2021/05/12 06:46:25;;;;;;;7.28;2.30;;;;;;;23.44;28.12;102052.16;2578504;55;20116;-73
2021/05/12 06:48:53;;;;;;;5.10;2.30;;;;;;;23.40;28.03;102058.13;2578426;55;20112;-74
2021/05/12 06:51:21;;;;;;;5.87;2.45;;;;;;;23.44;28.54;102052.16;2578341;55;20135;-73
2021/05/12 06:53:48;;;;;;;3.30;2.15;;;;;;;23.63;28.64;102053.72;2578302;55;20120;-73
2021/05/12 06:56:16;;;;;;;4.65;2.22;;;;;;;23.75;26.88;102042.50;2578502;55;20121;-73
2021/05/12 06:58:43;;;;;;;4.62;2.78;;;;;;;23.66;26.33;102044.38;2578402;55;20121;-73
2021/05/12 07:01:13;;;;;;;8.20;2.35;;;;;;;23.81;26.68;102046.41;2578291;55;20119;-72
2021/05/12 07:03:41;;;;;;;7.37;2.80;;;;;;;24.01;26.24;102042.28;2573307;55;20696;-73
2021/05/12 07:06:08;;;;;;;6.53;2.55;;;;;;;24.15;26.53;102035.31;2578348;55;20128;-72
2021/05/12 07:08:37;;;;;;;5.93;2.75;;;;;;;24.27;26.67;102035.78;2578319;55;20166;-74
2021/05/12 07:11:05;;;;;;;5.68;2.60;;;;;;;24.43;26.03;102044.94;2578234;55;20671;-72
2021/05/12 07:13:32;;;;;;;3.87;2.12;;;;;;;24.49;26.13;102038.78;2578398;55;20199;-72
2021/05/12 07:16:01;;;;;;;11.65;3.70;;;;;;;24.52;24.52;102043.87;2578120;55;20114;-73
2021/05/12 07:18:28;;;;;;;4.12;3.00;;;;;;;24.60;25.69;102046.56;2578206;55;20121;-73
2021/05/12 07:20:57;;;;;;;4.70;2.50;;;;;;;24.59;24.65;102042.16;2578452;55;20165;-71
2021/05/12 07:23:27;;;;;;;11.45;2.85;;;;;;;24.78;24.70;102037.31;2578386;55;20127;-72
2021/05/12 07:25:56;;;;;;;5.07;2.60;;;;;;;24.97;26.14;102041.47;2578074;55;20161;-72
2021/05/12 07:28:24;;;;;;;5.07;2.50;;;;;;;25.09;24.38;102041.06;2578327;55;20144;-75
2021/05/12 07:30:52;;;;;;;3.17;2.47;;;;;;;25.32;24.55;102032.88;2573200;55;20547;-72
2021/05/12 07:33:19;;;;;;;4.30;2.55;;;;;;;25.52;23.92;102036.00;2578242;55;20385;-75
2021/05/12 07:35:47;;;;;;;3.87;2.55;;;;;;;25.38;24.00;102039.50;2578519;55;20124;-74
2021/05/12 07:38:15;;;;;;;3.42;3.12;;;;;;;25.52;23.59;102037.88;2578272;55;20128;-73
2021/05/12 07:40:43;;;;;;;5.32;2.33;;;;;;;25.62;23.18;102032.19;2578150;55;20629;-74
2021/05/12 07:43:11;;;;;;;3.10;2.55;;;;;;;25.69;22.80;102031.25;2578197;55;20117;-72
2021/05/12 07:45:40;;;;;;;3.90;2.15;;;;;;;25.74;24.03;102033.44;2578103;55;20116;-73
2021/05/12 07:48:10;;;;;;;10.13;2.62;;;;;;;25.90;22.54;102029.69;2578330;55;20127;-75
2021/05/12 07:50:38;;;;;;;7.12;3.00;;;;;;;26.00;22.76;102034.88;2578082;55;20492;-74
2021/05/12 07:53:07;;;;;;;5.43;2.17;;;;;;;26.07;23.19;102029.53;2578269;55;20105;-72
2021/05/12 07:55:36;;;;;;;5.25;2.40;;;;;;;26.13;22.22;102039.69;2578762;55;20533;-74
2021/05/12 07:58:05;;;;;;;2.87;2.33;;;;;;;26.13;22.76;102020.56;2578916;55;20528;-75
2021/05/12 08:00:34;;;;;;;3.78;2.35;;;;;;;26.21;22.26;102028.69;2573818;55;20613;-72
2021/05/12 08:03:03;;;;;;;5.70;2.17;;;;;;;26.06;22.74;102036.03;2578884;55;20121;-72
2021/05/12 08:05:30;;;;;;;5.60;3.20;;;;;;;25.87;23.09;102035.53;2578808;55;20131;-74
2021/05/12 08:07:57;;;;;;;5.65;2.75;;;;;;;25.92;22.57;102027.59;2578903;55;20120;-72
2021/05/12 08:10:25;;;;;;;8.93;4.12;;;;;;;26.07;22.54;102024.06;2573860;55;20124;-72
2021/05/12 08:12:53;;;;;;;4.05;2.47;;;;;;;26.30;22.66;102023.97;2578090;55;20105;-73
2021/05/12 08:15:21;;;;;;;9.20;5.75;;;;;;;26.30;24.17;102018.50;2576169;55;20129;-73
2021/05/12 08:17:49;;;;;;;8.30;3.58;;;;;;;26.39;22.19;102014.62;2570883;55;20125;-73
2021/05/12 08:20:16;;;;;;;14.02;6.25;;;;;;;26.56;22.23;102008.97;2576364;55;20127;-72
2021/05/12 08:22:43;;;;;;;8.10;3.92;;;;;;;26.80;22.23;102013.25;2576283;55;20519;-73
2021/05/12 08:25:12;;;;;;;8.20;5.50;;;;;;;26.80;21.82;102010.50;2576343;55;20624;-73
2021/05/12 08:27:41;;;;;;;6.75;3.25;;;;;;;26.97;23.94;102013.06;2576174;55;20131;-73
2021/05/12 08:30:11;;;;;;;6.57;4.30;;;;;;;27.02;21.51;102016.03;2576035;55;20558;-73
2021/05/12 08:32:39;;;;;;;10.20;4.85;;;;;;;27.01;21.21;102014.34;2576222;55;20109;-73
2021/05/12 08:35:07;;;;;;;24.63;12.23;;;;;;;26.90;20.68;102017.59;2577726;55;20117;-72
2021/05/12 08:37:34;;;;;;;7.32;3.28;;;;;;;27.01;22.03;102006.13;2578823;55;20496;-73
2021/05/12 08:40:03;;;;;;;5.30;2.40;;;;;;;26.74;20.20;102002.22;2578798;55;20140;-73
2021/05/12 08:42:31;;;;;;;14.00;6.65;;;;;;;26.83;21.19;102000.22;2578771;55;20516;-72
2021/05/12 08:44:58;;;;;;;8.13;4.20;;;;;;;26.99;23.75;101991.78;2578908;55;20164;-72
2021/05/12 08:47:29;;;;;;;7.57;4.97;;;;;;;27.33;21.14;101997.59;2578808;55;20165;-74
2021/05/12 08:49:58;;;;;;;25.25;11.27;;;;;;;27.23;22.15;102000.66;2578709;55;20588;-74
2021/05/12 08:52:27;;;;;;;4.72;2.33;;;;;;;26.96;20.41;101992.19;2578899;55;20164;-75
2021/05/12 08:54:56;;;;;;;10.48;4.85;;;;;;;26.80;20.34;101988.63;2578867;55;20532;-73
2021/05/12 08:57:23;;;;;;;5.53;2.03;;;;;;;26.92;21.05;101982.66;2578841;55;20156;-74
2021/05/12 08:59:52;;;;;;;8.07;2.53;;;;;;;26.71;21.53;101983.47;2578625;55;20121;-74
2021/05/12 09:02:20;;;;;;;12.05;4.22;;;;;;;26.86;23.06;101978.78;2578729;55;20693;-73
2021/05/12 09:04:48;;;;;;;4.10;2.65;;;;;;;27.12;21.78;101982.87;2578589;55;20508;-74
2021/05/12 09:07:16;;;;;;;5.97;2.62;;;;;;;27.28;21.35;101984.50;2578722;55;20113;-73
2021/05/12 09:09:44;;;;;;;5.72;2.53;;;;;;;26.95;21.34;101976.78;2578935;55;20113;-75
2021/05/12 09:12:12;;;;;;;3.67;3.35;;;;;;;26.89;20.90;101972.94;2578648;55;20123;-72
2021/05/12 09:14:40;;;;;;;3.70;2.30;;;;;;;27.11;21.97;101981.19;2578646;55;20109;-74
2021/05/12 09:17:09;;;;;;;6.25;2.40;;;;;;;27.04;21.29;101969.31;2578675;55;20109;-74
2021/05/12 09:19:37;;;;;;;13.60;6.18;;;;;;;26.88;21.80;101981.38;2578637;55;20124;-73
2021/05/12 09:22:06;;;;;;;11.07;5.35;;;;;;;26.92;24.55;101960.75;2578681;55;20667;-73
2021/05/12 09:24:35;;;;;;;6.20;3.08;;;;;;;27.18;22.13;101965.63;2578587;55;20125;-74
2021/05/12 09:27:04;;;;;;;2.58;2.30;;;;;;;27.33;21.70;101962.00;2578715;55;20128;-73
2021/05/12 09:29:33;;;;;;;3.70;2.80;;;;;;;26.97;21.90;101958.28;2578695;55;20125;-76
2021/05/12 09:32:09;;;;;;;6.43;2.40;;;;;;;26.89;21.50;101961.97;2578696;55;20120;-74
2021/05/12 09:34:54;;;;;;;10.35;5.43;;;;;;;27.13;23.12;101953.56;2578620;55;20124;-74
2021/05/12 09:37:27;;;;;;;6.20;2.78;;;;;;;27.20;22.72;101958.06;2578795;55;20101;-76
2021/05/12 09:39:55;;;;;;;16.58;3.60;;;;;;;27.30;22.82;101970.56;2578562;55;20114;-74
2021/05/12 09:42:24;;;;;;;5.10;2.42;;;;;;;27.13;21.43;101961.78;2578897;55;20149;-73
2021/05/12 09:45:09;;;;;;;2.78;2.20;;;;;;;27.34;22.71;101960.94;2578504;55;20119;-75
2021/05/12 09:47:38;;;;;;;9.73;4.53;;;;;;;27.40;21.95;101962.88;2578676;55;20519;-76
2021/05/12 09:50:11;;;;;;;14.68;6.25;;;;;;;27.53;23.52;101959.37;2578490;55;20117;-76
2021/05/12 09:52:40;;;;;;;3.90;2.47;;;;;;;27.60;21.39;101957.59;2578620;55;20119;-74
2021/05/12 09:55:08;;;;;;;8.73;4.45;;;;;;;27.61;23.20;101956.53;2578544;55;20511;-74
2021/05/12 09:57:36;;;;;;;12.65;8.02;;;;;;;27.65;23.04;101959.72;2578633;55;20527;-73
2021/05/12 10:00:24;;;;;;;3.70;2.12;;;;;;;27.61;22.32;101942.84;2578341;55;20113;-75
2021/05/12 10:02:53;;;;;;;11.60;5.97;;;;;;;27.82;24.70;101941.06;2578478;55;20566;-73
2021/05/12 10:05:21;;;;;;;12.77;9.10;;;;;;;27.97;23.89;101940.94;2578535;55;20109;-74
2021/05/12 10:07:53;;;;;;;28.20;8.02;;;;;;;28.23;24.39;101935.81;2578515;55;20136;-72
2021/05/12 10:10:40;;;;;;;5.45;2.40;;;;;;;28.11;21.90;101930.03;2578550;55;20131;-75
2021/05/12 10:13:08;;;;;;;14.27;8.68;;;;;;;27.78;22.57;101939.78;2578903;55;20119;-73
2021/05/12 10:15:36;;;;;;;4.12;2.40;;;;;;;27.72;22.08;101930.47;2578564;55;20109;-75
2021/05/12 10:18:04;;;;;;;14.48;10.07;;;;;;;27.80;23.20;101931.34;2578308;55;20135;-76
2021/05/12 10:20:32;;;;;;;4.15;2.25;;;;;;;27.77;22.91;101935.34;2578587;55;20202;-72
2021/05/12 10:23:02;;;;;;;5.00;2.87;;;;;;;27.64;22.08;101939.69;2578418;55;20110;-74
2021/05/12 10:25:29;;;;;;;9.23;5.57;;;;;;;27.72;23.30;101937.84;2578385;55;20121;-72
2021/05/12 10:27:58;;;;;;;4.53;3.55;;;;;;;27.86;22.91;101931.41;2578490;55;20484;-74
2021/05/12 10:30:27;;;;;;;17.42;4.78;;;;;;;27.96;23.89;101936.50;2578495;55;20120;-72
2021/05/12 10:32:57;;;;;;;23.83;15.93;;;;;;;27.88;22.27;101932.03;2578458;55;20128;-72
2021/05/12 10:35:31;;;;;;;6.95;3.70;;;;;;;28.06;22.33;101923.28;2578328;55;20131;-74
2021/05/12 10:38:00;;;;;;;17.58;9.82;;;;;;;28.24;23.47;101924.66;2578522;55;20102;-74
2021/05/12 10:40:30;;;;;;;10.02;3.28;;;;;;;28.15;22.63;101932.16;2578122;55;20116;-72
2021/05/12 10:43:11;;;;;;;4.97;3.87;;;;;;;28.08;21.75;101924.97;2578612;55;20117;-72
2021/05/12 10:45:56;;;;;;;4.28;2.90;;;;;;;28.06;22.25;101923.28;2578431;55;20536;-73
2021/05/12 10:48:38;;;;;;;3.83;2.30;;;;;;;27.84;22.36;101925.25;2578740;55;20116;-74
2021/05/12 10:51:08;;;;;;;28.55;14.00;;;;;;;27.95;24.00;101915.63;2578166;55;20642;-74
2021/05/12 10:53:44;;;;;;;12.98;5.87;;;;;;;28.23;22.06;101911.13;2578333;55;20123;-72
2021/05/12 10:56:14;;;;;;;9.23;3.80;;;;;;;28.23;22.32;101905.66;2578299;55;20121;-72
2021/05/12 10:58:58;;;;;;;10.50;3.72;;;;;;;28.22;22.36;101882.88;2578578;55;20317;-72
2021/05/12 11:01:27;;;;;;;8.65;3.67;;;;;;;28.42;23.70;101904.87;2577841;55;20133;-73
2021/05/12 11:04:08;;;;;;;17.37;12.15;;;;;;;28.72;23.94;101903.69;2578240;55;20168;-75
2021/05/12 11:06:57;;;;;;;5.25;4.00;;;;;;;28.81;21.91;101901.56;2578239;55;20172;-74
2021/05/12 11:09:42;;;;;;;15.55;6.28;;;;;;;28.97;22.75;101894.84;2578291;55;20120;-72
2021/05/12 11:12:12;;;;;;;7.95;4.90;;;;;;;28.59;22.67;101885.28;2578359;55;20667;-72
2021/05/12 11:14:40;;;;;;;8.10;6.47;;;;;;;28.46;23.25;101884.22;2578287;55;20124;-72
2021/05/12 11:17:09;;;;;;;8.00;6.85;;;;;;;28.38;21.69;101892.62;2578544;55;20109;-75
2021/05/12 11:19:47;;;;;;;12.30;7.23;;;;;;;28.43;22.43;101892.84;2578217;55;20113;-72
2021/05/12 11:22:33;;;;;;;9.10;6.65;;;;;;;28.65;22.19;101881.69;2578403;55;20740;-72
2021/05/12 11:25:06;;;;;;;10.00;7.28;;;;;;;28.51;21.62;101871.75;2578368;55;20122;-75
2021/05/12 11:33:20;;;;;;;10.25;7.97;;;;;;;28.83;21.86;101877.50;2569197;55;20613;-75
2021/05/12 11:35:49;;;;;;;8.88;6.70;;;;;;;28.49;21.89;101871.13;2578971;55;20125;-72
2021/05/12 11:38:19;;;;;;;9.63;7.05;;;;;;;28.64;23.59;101869.00;2579048;55;20118;-72
2021/05/12 11:41:00;;;;;;;12.40;7.55;;;;;;;28.95;22.95;101867.59;2576188;55;20135;-72
2021/05/12 11:43:36;;;;;;;8.90;8.00;;;;;;;28.94;21.57;101862.31;2576393;55;20511;-72
2021/05/12 11:46:11;;;;;;;10.15;8.25;;;;;;;28.80;21.32;101864.19;2576305;55;20105;-72